Time;durP1;ratioP1;P1;durP2;ratioP2;P2;SDS_P1;SDS_P2;PMS_P1;PMS_P2;Temp;Humidity;BMP_temperature;BMP_pressure;BME280_temperature;BME280_humidity;BME280_pressure;Samples;Min_cycle;Max_cycle;Signal;HPM_P1;HPM_P2
2022/01/18 00:00:18;;;;;;;0.50;0.17;;;;;;;0.18;79.62;97911.53;1759508;79;20873;-54
2022/01/18 00:02:43;;;;;;;1.13;0.20;;;;;;;0.17;79.94;97901.86;1761286;79;20922;-53
2022/01/18 00:05:15;;;;;;;0.40;0.20;;;;;;;0.19;80.21;97904.00;1760438;79;21087;-53
2022/01/18 00:07:43;;;;;;;0.40;0.10;;;;;;;0.20;80.38;97895.15;1723993;81;21143;-53
2022/01/18 00:10:10;;;;;;;0.30;0.10;;;;;;;0.21;80.60;97898.20;1724038;81;21059;-53
2022/01/18 00:20:41;;;;;;;0.10;0.10;;;;;;;0.21;81.02;97925.12;1739595;80;20867;-54
2022/01/18 00:22:58;;;;;;;0.10;0.00;;;;;;;0.20;81.23;97926.03;1734581;80;20934;-53
2022/01/18 00:25:25;;;;;;;0.20;0.10;;;;;;;0.19;81.33;97933.56;1738053;80;20918;-54
2022/01/18 00:27:51;;;;;;;0.70;0.00;;;;;;;0.18;81.49;97937.13;1737739;80;20915;-54
2022/01/18 00:32:52;;;;;;;0.30;0.20;;;;;;;0.25;81.79;97954.54;1868901;75;26710;-54
2022/01/18 00:35:00;;;;;;;0.20;0.10;;;;;;;0.19;81.80;97964.86;1830327;75;21072;-54
2022/01/18 00:37:34;;;;;;;2.77;0.10;;;;;;;0.16;81.80;97983.50;1832362;77;21132;-54
2022/01/18 00:39:55;;;;;;;0.40;0.10;;;;;;;0.11;82.78;97977.95;1832697;75;22242;-53
2022/01/18 00:42:21;;;;;;;0.20;0.10;;;;;;;0.05;84.31;97986.97;1836000;77;21546;-53
2022/01/18 00:44:48;;;;;;;4.13;0.47;;;;;;;0.03;85.01;97990.58;1828071;75;20945;-53
2022/01/18 00:47:15;;;;;;;0.20;0.00;;;;;;;-0.07;85.12;97996.17;1830850;75;21040;-54
2022/01/18 00:49:44;;;;;;;3.50;0.10;;;;;;;-0.22;85.52;98005.95;1830281;75;21110;-55
2022/01/18 00:52:09;;;;;;;0.20;0.00;;;;;;;-0.33;85.26;98008.06;1831724;77;21044;-54
2022/01/18 00:54:40;;;;;;;0.40;0.03;;;;;;;-0.44;85.43;98024.75;1831184;77;21219;-53
2022/01/18 00:57:05;;;;;;;0.30;0.10;;;;;;;-0.57;86.18;98036.60;1830799;75;21061;-53
2022/01/18 00:59:31;;;;;;;1.37;0.00;;;;;;;-0.69;88.89;98054.17;1828700;77;21083;-53
2022/01/18 01:01:57;;;;;;;1.50;0.40;;;;;;;-0.78;88.86;98120.04;1828089;75;21653;-53
2022/01/18 01:04:27;;;;;;;0.97;0.10;;;;;;;-0.96;89.45;98096.34;1827435;75;21586;-54
2022/01/18 01:06:52;;;;;;;3.80;0.00;;;;;;;-1.11;92.90;98106.47;1836833;75;20882;-53
2022/01/18 01:09:19;;;;;;;2.43;0.43;;;;;;;-1.22;93.80;98105.44;1830029;75;21001;-54
2022/01/18 01:11:45;;;;;;;0.40;0.00;;;;;;;-1.34;94.18;98117.19;1828748;75;21119;-54
2022/01/18 01:14:16;;;;;;;2.60;0.27;;;;;;;-1.41;94.36;98124.86;1825885;75;21186;-53
2022/01/18 01:16:53;;;;;;;0.20;0.00;;;;;;;-1.46;94.48;98125.45;1829516;77;21444;-53
2022/01/18 01:19:26;;;;;;;3.60;0.00;;;;;;;-1.49;94.59;98144.44;1823585;77;21008;-54
2022/01/18 01:43:24;;;;;;;2.80;0.00;;;;;;;-1.91;94.26;98199.53;1828893;75;21060;-53
2022/01/18 01:45:49;;;;;;;3.07;0.00;;;;;;;-1.87;94.51;98208.22;1828794;75;21124;-51
2022/01/18 01:48:17;;;;;;;0.97;0.00;;;;;;;-1.84;94.44;98238.49;1826087;77;21723;-52
2022/01/18 01:50:49;;;;;;;0.83;0.00;;;;;;;-1.82;93.56;98247.25;1823100;75;21275;-52
2022/01/18 01:53:15;;;;;;;0.10;0.00;;;;;;;-1.78;93.76;98242.75;1828739;75;21142;-51
2022/01/18 01:55:42;;;;;;;0.47;0.00;;;;;;;-1.80;92.81;98249.41;1825400;77;22302;-51
2022/01/18 01:58:08;;;;;;;0.10;0.00;;;;;;;-1.86;91.12;98240.73;1830599;77;21502;-51
2022/01/18 02:00:46;;;;;;;0.67;0.10;;;;;;;-1.87;91.22;98254.86;1766659;79;21485;-51
2022/01/18 02:03:13;;;;;;;0.20;0.00;;;;;;;-1.93;87.17;98258.48;1760732;80;21113;-51
2022/01/18 02:05:39;;;;;;;0.30;0.00;;;;;;;-1.94;87.19;98280.47;1762831;80;21124;-52
2022/01/18 02:08:07;;;;;;;2.63;0.10;;;;;;;-1.98;84.35;98284.96;1759884;80;21089;-52
2022/01/18 02:10:35;;;;;;;0.40;0.00;;;;;;;-1.98;85.07;98281.45;1764005;78;21042;-51
2022/01/18 02:13:03;;;;;;;0.13;0.00;;;;;;;-1.97;83.84;98272.20;1760440;78;22602;-51
2022/01/18 02:15:30;;;;;;;2.30;0.00;;;;;;;-1.98;81.89;98288.05;1789670;77;21339;-51
2022/01/18 02:23:29;;;;;;;0.20;0.07;;;;;;;-2.04;75.62;98298.25;1758703;78;21039;-51
2022/01/18 02:25:56;;;;;;;0.47;0.00;;;;;;;-2.04;74.78;98296.10;1755314;80;21098;-51
2022/01/18 02:28:24;;;;;;;0.17;0.10;;;;;;;-2.02;74.57;98302.19;1788974;77;21639;-51
2022/01/18 02:30:51;;;;;;;3.73;0.10;;;;;;;-2.01;72.91;98310.52;1792895;77;20991;-51
2022/01/18 02:33:17;;;;;;;1.17;0.00;;;;;;;-2.04;70.23;98350.15;1755853;79;21500;-51
2022/01/18 02:35:44;;;;;;;0.67;0.10;;;;;;;-2.11;74.91;98334.01;1758761;78;21105;-50
2022/01/18 02:38:11;;;;;;;0.10;0.00;;;;;;;-2.22;77.06;98323.70;1764235;78;21769;-50
2022/01/18 02:40:38;;;;;;;0.17;0.00;;;;;;;-2.31;75.81;98319.48;1764151;78;22029;-51
2022/01/18 02:45:52;;;;;;;6.27;0.10;;;;;;;-2.43;69.51;98342.11;1761642;80;20947;-51
2022/01/18 02:48:18;;;;;;;2.57;0.00;;;;;;;-2.46;67.52;98338.64;1762872;80;20963;-52
2022/01/18 02:50:46;;;;;;;0.10;0.00;;;;;;;-2.48;67.11;98341.34;1762456;80;20983;-51
2022/01/18 02:53:12;;;;;;;0.20;0.00;;;;;;;-2.50;69.25;98347.52;1795091;77;20898;-51
2022/01/18 02:55:40;;;;;;;1.03;0.00;;;;;;;-2.54;67.79;98341.42;1790450;79;21722;-51
2022/01/18 02:58:10;;;;;;;0.10;0.00;;;;;;;-2.57;64.61;98365.22;1789674;77;20928;-51
2022/01/18 03:03:24;;;;;;;0.10;0.00;;;;;;;-2.61;62.50;98352.98;1794911;77;20863;-52
2022/01/18 03:05:50;;;;;;;0.00;0.00;;;;;;;-2.60;60.50;98381.51;1787588;79;21297;-50
2022/01/18 03:08:17;;;;;;;1.33;0.00;;;;;;;-2.63;60.24;98373.20;1787867;79;21100;-49
2022/01/18 03:10:44;;;;;;;0.10;0.00;;;;;;;-2.67;60.33;98380.31;1790414;77;20957;-49
2022/01/18 03:13:10;;;;;;;3.40;0.00;;;;;;;-2.70;61.60;98387.38;1790519;77;20906;-50
2022/01/18 03:15:36;;;;;;;0.03;0.00;;;;;;;-2.75;64.90;98386.16;1791675;77;20899;-53
2022/01/18 03:18:06;;;;;;;1.50;0.00;;;;;;;-2.82;60.79;98406.05;1788330;77;21668;-51
2022/01/18 03:20:32;;;;;;;0.53;0.00;;;;;;;-2.87;59.12;98407.86;1791068;77;21140;-49
2022/01/18 03:22:59;;;;;;;0.20;0.00;;;;;;;-2.90;59.65;98414.52;1794277;77;20946;-52
2022/01/18 03:25:39;;;;;;;0.90;0.00;;;;;;;-2.92;58.10;98418.48;1790994;79;20851;-50
2022/01/18 03:28:05;;;;;;;0.20;0.00;;;;;;;-2.92;57.95;98438.67;1787914;78;20890;-49
2022/01/18 03:30:42;;;;;;;0.23;0.00;;;;;;;-2.91;57.87;98441.73;1791151;77;21051;-48
2022/01/18 03:33:13;;;;;;;0.10;0.00;;;;;;;-2.91;57.56;98454.45;1744928;79;22268;-50
2022/01/18 03:35:40;;;;;;;0.40;0.00;;;;;;;-2.90;57.96;98466.73;1766170;79;21116;-51
2022/01/18 03:38:07;;;;;;;0.30;0.20;;;;;;;-2.89;59.62;98491.30;1774359;79;21041;-51
2022/01/18 03:40:33;;;;;;;1.90;0.10;;;;;;;-2.91;63.44;98498.34;1765258;79;20988;-51
2022/01/18 03:43:01;;;;;;;0.30;0.00;;;;;;;-3.01;66.07;98497.60;1766052;79;21345;-48
2022/01/18 03:45:31;;;;;;;0.43;0.10;;;;;;;-3.15;69.07;98494.30;1765998;79;21242;-51
2022/01/18 03:48:02;;;;;;;0.10;0.00;;;;;;;-3.28;67.98;98512.45;1772926;79;21318;-48
2022/01/18 03:50:27;;;;;;;0.13;0.00;;;;;;;-3.36;64.67;98505.97;1770482;79;20907;-51
2022/01/18 03:52:54;;;;;;;0.07;0.00;;;;;;;-3.37;64.20;98519.14;1740863;80;21568;-50
2022/01/18 03:55:21;;;;;;;0.10;0.00;;;;;;;-3.33;63.88;98528.75;1751589;79;21056;-48
2022/01/18 03:57:48;;;;;;;0.23;0.10;;;;;;;-3.28;63.34;98533.49;1751440;79;22355;-47
2022/01/18 04:00:21;;;;;;;0.20;0.10;;;;;;;-3.21;62.87;98549.62;1723959;81;21578;-48
2022/01/18 04:02:48;;;;;;;1.63;0.10;;;;;;;-3.14;63.16;98553.92;1729838;80;21364;-48
2022/01/18 04:05:14;;;;;;;0.00;0.00;;;;;;;-3.09;62.75;98550.36;1743201;80;21026;-49
2022/01/18 04:07:41;;;;;;;0.00;0.00;;;;;;;-3.08;62.62;98557.37;1763714;79;21129;-51
2022/01/18 04:10:08;;;;;;;0.20;0.00;;;;;;;-3.06;62.76;98566.09;1764360;79;22904;-50
2022/01/18 04:12:35;;;;;;;0.40;0.10;;;;;;;-3.06;62.72;98579.70;1759942;79;20917;-52
2022/01/18 04:15:03;;;;;;;0.37;0.00;;;;;;;-3.05;63.05;98574.42;1760133;79;21087;-49
2022/01/18 04:17:46;;;;;;;0.57;0.10;;;;;;;-3.10;64.78;98580.20;1742782;80;21350;-50
2022/01/18 04:30:49;;;;;;;0.00;0.00;;;;;;;-3.18;65.41;98600.48;1765124;79;22465;-51
2022/01/18 04:33:16;;;;;;;0.67;0.00;;;;;;;-3.16;64.69;98603.10;1785119;77;21516;-51
2022/01/18 04:35:42;;;;;;;0.20;0.00;;;;;;;-3.15;64.83;98612.75;1785735;77;21130;-48
2022/01/18 04:38:09;;;;;;;0.13;0.03;;;;;;;-3.14;64.86;98623.67;1784933;77;21101;-52
2022/01/18 04:40:39;;;;;;;1.17;0.10;;;;;;;-3.14;64.77;98635.08;1757153;80;21396;-50
2022/01/18 04:43:14;;;;;;;1.90;0.00;;;;;;;-3.12;65.04;98632.43;1763120;78;20915;-52
2022/01/18 04:50:56;;;;;;;0.40;0.00;;;;;;;-3.14;64.41;98652.19;1795843;77;21119;-48
2022/01/18 04:53:22;;;;;;;0.20;0.10;;;;;;;-3.13;64.63;98675.43;1789734;77;21672;-49
2022/01/18 04:55:54;;;;;;;1.63;0.10;;;;;;;-3.10;64.75;98674.09;1794614;77;21070;-50
2022/01/18 04:58:17;;;;;;;0.17;0.00;;;;;;;-3.11;64.22;98661.81;1786618;77;21013;-48
2022/01/18 05:00:44;;;;;;;0.20;0.00;;;;;;;-3.14;64.05;98694.74;1789791;77;21114;-48
2022/01/18 05:03:10;;;;;;;0.10;0.00;;;;;;;-3.17;64.10;98683.83;1787616;77;21356;-49
2022/01/18 05:05:37;;;;;;;0.40;0.10;;;;;;;-3.19;64.52;98677.70;1786458;77;21726;-51
2022/01/18 05:08:06;;;;;;;3.07;0.00;;;;;;;-3.22;64.72;98667.63;1770421;79;21547;-51
2022/01/18 05:10:32;;;;;;;0.00;0.00;;;;;;;-3.24;64.50;98684.78;1760951;78;21534;-48
2022/01/18 05:13:09;;;;;;;0.97;0.00;;;;;;;-3.24;64.13;98671.62;1761118;80;21400;-48
2022/01/18 05:23:19;;;;;;;0.10;0.00;;;;;;;-3.26;61.68;98690.94;1703331;77;21649;-48
2022/01/18 05:25:46;;;;;;;0.50;0.10;;;;;;;-3.22;61.60;98690.87;1763115;80;21069;-49
2022/01/18 05:28:13;;;;;;;0.17;0.07;;;;;;;-3.19;61.17;98672.43;1788250;77;21042;-49
2022/01/18 05:30:40;;;;;;;0.23;0.00;;;;;;;-3.14;61.23;98683.77;1791033;79;22146;-47
2022/01/18 05:33:07;;;;;;;0.87;0.00;;;;;;;-3.13;60.93;98693.41;1751455;78;21102;-49
2022/01/18 05:35:34;;;;;;;0.77;0.10;;;;;;;-3.09;60.65;98713.56;1749181;80;20959;-47
2022/01/18 05:38:00;;;;;;;0.10;0.00;;;;;;;-3.07;60.07;98692.50;1744796;80;21222;-49
2022/01/18 05:40:26;;;;;;;0.40;0.10;;;;;;;-3.08;59.86;98707.42;1746884;80;21115;-50
2022/01/18 05:42:54;;;;;;;0.40;0.10;;;;;;;-3.10;59.70;98714.45;1749018;80;21106;-49
2022/01/18 05:45:20;;;;;;;2.10;0.07;;;;;;;-3.09;59.91;98721.91;1750407;80;21075;-49
2022/01/18 05:47:46;;;;;;;0.20;0.10;;;;;;;-3.10;59.94;98738.14;1747704;80;21106;-51
2022/01/18 05:50:13;;;;;;;2.23;0.10;;;;;;;-3.13;60.19;98728.95;1763262;80;21536;-49
2022/01/18 05:52:40;;;;;;;0.63;0.10;;;;;;;-3.14;60.47;98731.15;1760542;78;21087;-48
2022/01/18 05:55:07;;;;;;;0.10;0.00;;;;;;;-3.13;60.51;98743.87;1747667;80;22174;-47
2022/01/18 05:57:33;;;;;;;0.37;0.10;;;;;;;-3.14;60.83;98748.26;1753678;80;20963;-50
2022/01/18 06:00:06;;;;;;;0.30;0.10;;;;;;;-3.13;61.25;98750.45;1768620;78;20916;-50
2022/01/18 06:07:53;;;;;;;0.40;0.20;;;;;;;-3.12;62.90;98779.39;1770820;80;20877;-52
2022/01/18 06:10:19;;;;;;;0.40;0.10;;;;;;;-3.13;63.32;98792.13;1749747;81;21329;-48
2022/01/18 06:12:45;;;;;;;1.37;0.10;;;;;;;-3.16;63.59;98782.96;1746278;81;20988;-50
2022/01/18 06:15:12;;;;;;;0.30;0.10;;;;;;;-3.18;64.00;98788.67;1745169;81;21056;-50
2022/01/18 06:17:38;;;;;;;0.40;0.10;;;;;;;-3.21;63.95;98799.22;1746376;81;20963;-52
2022/01/18 06:20:06;;;;;;;1.57;0.20;;;;;;;-3.20;63.98;98803.59;1748293;80;20967;-51
2022/01/18 06:22:33;;;;;;;1.30;0.20;;;;;;;-3.20;64.17;98798.33;1748931;81;21035;-47
2022/01/18 06:27:36;;;;;;;0.63;0.10;;;;;;;-3.16;64.28;98813.23;1861013;75;26734;-50
2022/01/18 06:30:09;;;;;;;0.40;0.10;;;;;;;-3.19;64.17;98810.61;1838690;77;20965;-51
2022/01/18 06:32:33;;;;;;;0.37;0.10;;;;;;;-3.20;64.30;98819.83;1848107;77;21272;-49
2022/01/18 06:34:59;;;;;;;0.17;0.10;;;;;;;-3.23;64.37;98819.41;1839716;77;20992;-48
2022/01/18 06:37:26;;;;;;;1.57;0.10;;;;;;;-3.21;64.66;98833.88;1839669;77;21436;-50
2022/01/18 06:39:53;;;;;;;0.37;0.10;;;;;;;-3.20;64.93;98835.63;1842408;75;21036;-51
2022/01/18 06:42:20;;;;;;;0.30;0.10;;;;;;;-3.22;64.90;98827.73;1837165;77;21435;-48
2022/01/18 06:44:46;;;;;;;0.23;0.10;;;;;;;-3.22;65.01;98834.31;1839962;77;21109;-50
2022/01/18 06:47:13;;;;;;;0.37;0.17;;;;;;;-3.17;65.00;98832.98;1840685;77;21044;-48
2022/01/18 06:49:39;;;;;;;0.40;0.20;;;;;;;-3.16;64.67;98843.94;1837014;75;21419;-46
2022/01/18 06:52:06;;;;;;;0.23;0.13;;;;;;;-3.16;64.63;98846.58;1836130;77;21468;-49
2022/01/18 06:54:32;;;;;;;1.87;0.20;;;;;;;-3.13;64.52;98847.84;1840660;77;21143;-50
2022/01/18 06:56:59;;;;;;;1.60;0.20;;;;;;;-3.11;64.27;98856.17;1817798;77;21123;-48
2022/01/18 06:59:25;;;;;;;0.30;0.20;;;;;;;-3.10;64.17;98855.73;1797813;78;21052;-49
2022/01/18 07:01:52;;;;;;;1.07;0.20;;;;;;;-3.08;64.11;98854.84;1805954;78;21025;-47
2022/01/18 07:04:18;;;;;;;0.90;0.20;;;;;;;-3.05;64.04;98849.97;1808984;78;21049;-48
2022/01/18 07:06:45;;;;;;;1.50;0.30;;;;;;;-3.02;63.46;98851.27;1811708;78;21013;-50
2022/01/18 07:09:14;;;;;;;2.37;0.20;;;;;;;-3.01;63.13;98863.55;1805291;78;21098;-51
2022/01/18 07:11:42;;;;;;;1.53;0.40;;;;;;;-2.98;62.75;98875.83;1806314;78;21680;-48
2022/01/18 07:14:08;;;;;;;0.77;0.10;;;;;;;-2.96;61.86;98872.72;1807095;78;21049;-47
2022/01/18 07:16:35;;;;;;;0.17;0.10;;;;;;;-2.97;61.79;98863.06;1807730;78;21368;-48
2022/01/18 07:19:01;;;;;;;1.23;0.20;;;;;;;-2.93;61.43;98862.17;1805246;78;21440;-49
2022/01/18 07:21:28;;;;;;;0.63;0.10;;;;;;;-2.91;60.38;98880.16;1808847;78;21129;-50
2022/01/18 07:24:03;;;;;;;0.50;0.10;;;;;;;-2.88;60.49;98892.83;1795998;78;21068;-48
2022/01/18 07:26:22;;;;;;;0.93;0.10;;;;;;;-2.85;60.22;98878.77;1804459;78;21025;-48
2022/01/18 07:28:48;;;;;;;0.23;0.10;;;;;;;-2.87;60.02;98881.86;1804099;78;21089;-48
2022/01/18 07:31:15;;;;;;;0.30;0.10;;;;;;;-2.88;59.40;98898.55;1806960;78;21037;-53
2022/01/18 07:33:41;;;;;;;0.83;0.10;;;;;;;-2.88;59.51;98911.27;1809167;78;21510;-49
2022/01/18 07:36:07;;;;;;;0.40;0.10;;;;;;;-2.85;59.17;98909.06;1798891;78;21546;-49
2022/01/18 07:38:35;;;;;;;0.83;0.10;;;;;;;-2.81;59.20;98925.28;1805559;78;21108;-51
2022/01/18 07:41:01;;;;;;;0.33;0.10;;;;;;;-2.79;59.12;98918.22;1802823;78;21155;-48
2022/01/18 07:43:27;;;;;;;0.60;0.10;;;;;;;-2.75;58.77;98926.55;1808988;78;21021;-48
2022/01/18 07:45:53;;;;;;;0.60;0.10;;;;;;;-2.71;58.34;98955.91;1774663;79;21355;-48
2022/01/18 07:48:23;;;;;;;0.20;0.10;;;;;;;-2.72;57.70;98947.57;1768167;80;21004;-47
2022/01/18 07:50:51;;;;;;;3.23;0.40;;;;;;;-2.75;57.77;98939.71;1748554;80;21498;-49
2022/01/18 07:53:18;;;;;;;0.40;0.20;;;;;;;-2.76;57.51;98941.47;1746396;80;21366;-49
2022/01/18 07:55:46;;;;;;;0.57;0.20;;;;;;;-2.73;57.71;98952.44;1768565;80;21048;-52
2022/01/18 07:58:13;;;;;;;0.70;0.20;;;;;;;-2.71;57.75;98955.91;1771874;80;21147;-47
2022/01/18 08:00:39;;;;;;;0.50;0.10;;;;;;;-2.70;57.82;98953.70;1770100;79;21072;-51
2022/01/18 08:03:05;;;;;;;0.30;0.10;;;;;;;-2.67;57.71;98957.64;1766912;80;21449;-51
2022/01/18 08:05:31;;;;;;;0.73;0.10;;;;;;;-2.68;57.53;98947.98;1738931;80;21084;-49
2022/01/18 08:07:58;;;;;;;0.20;0.10;;;;;;;-2.65;57.42;98955.88;1769248;78;21063;-49
2022/01/18 08:10:30;;;;;;;0.30;0.10;;;;;;;-2.65;57.51;98945.78;1765796;79;21122;-48
2022/01/18 08:12:52;;;;;;;1.07;0.20;;;;;;;-2.63;57.19;98959.80;1765160;80;21093;-49
2022/01/18 08:15:21;;;;;;;0.20;0.10;;;;;;;-2.60;57.36;98956.70;1747009;80;21053;-49
2022/01/18 08:17:49;;;;;;;0.50;0.10;;;;;;;-2.56;57.32;98981.28;1737966;81;21447;-48
2022/01/18 08:20:15;;;;;;;0.10;0.10;;;;;;;-2.53;57.27;98982.11;1746497;81;22257;-50
2022/01/18 08:22:43;;;;;;;0.33;0.10;;;;;;;-2.51;56.72;98986.93;1742401;81;22676;-49
2022/01/18 08:25:14;;;;;;;1.03;0.20;;;;;;;-2.50;56.00;98973.31;1741934;81;21615;-49
2022/01/18 08:27:41;;;;;;;0.70;0.10;;;;;;;-2.51;55.60;98996.16;1741231;81;21041;-47
2022/01/18 08:30:10;;;;;;;0.33;0.10;;;;;;;-2.51;56.06;99015.04;1738970;81;21057;-52
2022/01/18 08:32:37;;;;;;;0.33;0.13;;;;;;;-2.48;56.21;99018.98;1744034;81;20985;-49
2022/01/18 08:35:05;;;;;;;1.37;0.10;;;;;;;-2.43;56.09;99029.03;1744277;81;22649;-48
2022/01/18 08:37:32;;;;;;;0.20;0.10;;;;;;;-2.37;55.25;99027.21;1746319;81;21665;-49
2022/01/18 08:39:58;;;;;;;3.07;0.60;;;;;;;-2.33;55.27;99034.66;1740334;81;21058;-50
2022/01/18 08:42:24;;;;;;;0.40;0.20;;;;;;;-2.34;54.51;99027.64;1742412;81;21050;-52
2022/01/18 08:44:51;;;;;;;0.77;0.23;;;;;;;-2.32;55.03;99043.88;1747162;81;21097;-49
2022/01/18 08:47:17;;;;;;;0.37;0.20;;;;;;;-2.29;55.16;99042.52;1743687;81;21182;-51
2022/01/18 08:49:44;;;;;;;2.00;0.20;;;;;;;-2.23;54.53;99048.64;1744885;81;21069;-53
2022/01/18 08:52:11;;;;;;;0.40;0.10;;;;;;;-2.24;53.75;99041.18;1744113;81;21045;-49
2022/01/18 08:54:39;;;;;;;0.77;0.10;;;;;;;-2.21;53.99;99048.20;1742993;81;21101;-49
2022/01/18 08:57:06;;;;;;;0.50;0.20;;;;;;;-2.17;53.57;99060.01;1746208;81;21334;-49
2022/01/18 08:59:35;;;;;;;1.50;0.40;;;;;;;-2.17;52.73;99052.09;1745087;81;21105;-49
2022/01/18 09:02:03;;;;;;;1.50;0.30;;;;;;;-2.17;53.01;99070.55;1749986;81;20978;-49
2022/01/18 09:04:29;;;;;;;0.50;0.20;;;;;;;-2.20;53.20;99068.38;1741565;81;20954;-51
2022/01/18 09:09:26;;;;;;;0.43;0.20;;;;;;;-2.21;51.74;99071.92;1867270;75;26705;-49
2022/01/18 09:11:53;;;;;;;0.40;0.10;;;;;;;-2.31;53.38;99089.57;1836658;77;20965;-50
2022/01/18 09:14:19;;;;;;;1.33;0.23;;;;;;;-2.39;52.62;99068.98;1836264;77;22303;-50
2022/01/18 09:16:46;;;;;;;1.67;0.20;;;;;;;-2.41;52.78;99076.02;1837867;77;21049;-51
2022/01/18 09:19:12;;;;;;;0.33;0.10;;;;;;;-2.40;52.99;99079.09;1832886;77;20949;-50
2022/01/18 09:21:39;;;;;;;0.50;0.20;;;;;;;-2.38;52.81;99088.72;1841124;77;21091;-48
2022/01/18 09:24:06;;;;;;;0.53;0.20;;;;;;;-2.32;53.01;99101.00;1836412;77;21566;-51
2022/01/18 09:26:32;;;;;;;1.10;0.20;;;;;;;-2.27;52.64;99102.27;1834816;77;21190;-51
2022/01/18 09:28:59;;;;;;;0.73;0.10;;;;;;;-2.24;52.88;99102.25;1839397;76;21061;-49
2022/01/18 09:31:25;;;;;;;0.30;0.20;;;;;;;-2.20;53.23;99102.20;1834567;77;21043;-51
2022/01/18 09:33:51;;;;;;;2.53;0.30;;;;;;;-2.12;53.38;99114.88;1835451;77;21150;-50
2022/01/18 09:36:17;;;;;;;0.90;0.30;;;;;;;-2.04;53.54;99106.94;1834606;77;21926;-49
2022/01/18 09:38:44;;;;;;;0.53;0.20;;;;;;;-1.95;53.21;99117.38;1835183;77;21332;-49
2022/01/18 09:41:12;;;;;;;1.03;0.20;;;;;;;-1.91;52.57;99122.64;1832955;77;22526;-49
2022/01/18 09:43:40;;;;;;;0.30;0.20;;;;;;;-1.91;52.58;99109.45;1835170;77;21380;-52
2022/01/18 09:46:07;;;;;;;0.50;0.20;;;;;;;-1.96;51.39;99120.47;1837620;77;20961;-52
2022/01/18 09:48:33;;;;;;;0.37;0.10;;;;;;;-2.00;51.64;99120.52;1834465;77;21025;-50
2022/01/18 09:50:59;;;;;;;5.00;0.20;;;;;;;-1.98;51.78;99116.11;1834878;77;23292;-52
2022/01/18 09:53:26;;;;;;;0.40;0.20;;;;;;;-1.98;51.25;99126.66;1829246;76;21060;-49
2022/01/18 09:55:53;;;;;;;2.83;0.20;;;;;;;-2.00;51.49;99121.84;1824336;77;21533;-52
2022/01/18 09:58:20;;;;;;;0.23;0.17;;;;;;;-2.06;51.26;99129.37;1806964;77;21007;-50
2022/01/18 10:00:48;;;;;;;3.40;0.80;;;;;;;-2.07;51.94;99129.38;1742628;80;21312;-53
2022/01/18 10:03:33;;;;;;;1.57;0.40;;;;;;;-2.10;51.50;99122.34;1772173;78;21108;-50
2022/01/18 10:06:00;;;;;;;1.52;0.53;;;;;;;-2.11;51.77;99116.64;1774709;78;21772;-52
2022/01/18 10:08:27;;;;;;;3.43;0.50;;;;;;;-2.08;52.08;99118.39;1767145;78;22340;-47
2022/01/18 10:11:10;;;;;;;1.73;0.63;;;;;;;-2.06;51.17;99117.50;1750609;80;20957;-51
2022/01/18 10:13:38;;;;;;;2.13;0.30;;;;;;;-2.04;51.45;99134.63;1726537;81;21446;-49
2022/01/18 10:16:11;;;;;;;1.23;0.37;;;;;;;-2.02;51.31;99135.03;1720702;82;21314;-50
2022/01/18 10:18:47;;;;;;;1.53;0.30;;;;;;;-2.05;50.53;99133.76;1724464;81;21241;-48
2022/01/18 10:21:29;;;;;;;0.53;0.30;;;;;;;-2.09;50.97;99157.51;1721446;81;21032;-49
2022/01/18 10:24:16;;;;;;;2.20;0.20;;;;;;;-2.17;50.15;99150.97;1724692;81;21609;-49
2022/01/18 10:26:45;;;;;;;0.20;0.10;;;;;;;-2.20;50.71;99165.48;1712430;81;21095;-51
2022/01/18 10:29:12;;;;;;;2.37;0.20;;;;;;;-2.23;53.45;99164.64;1720709;81;21680;-49
2022/01/18 10:31:57;;;;;;;1.83;0.20;;;;;;;-2.23;51.68;99164.64;1722006;81;22091;-50
2022/01/18 10:37:06;;;;;;;0.40;0.10;;;;;;;-2.17;50.40;99179.09;1722105;81;21127;-49
2022/01/18 10:39:36;;;;;;;0.30;0.10;;;;;;;-2.15;52.50;99178.21;1724164;81;21490;-52
2022/01/18 10:42:29;;;;;;;0.90;0.20;;;;;;;-2.11;51.88;99194.87;1750623;80;21137;-48
2022/01/18 10:45:05;;;;;;;0.30;0.10;;;;;;;-2.09;50.65;99192.66;1750625;80;21013;-47
2022/01/18 10:47:35;;;;;;;0.40;0.10;;;;;;;-2.04;50.65;99193.50;1718523;82;21052;-52
2022/01/18 10:50:11;;;;;;;0.40;0.17;;;;;;;-1.99;50.70;99181.61;1719343;81;21110;-50
2022/01/18 10:52:37;;;;;;;0.37;0.20;;;;;;;-1.97;49.93;99191.27;1722558;81;21075;-50
2022/01/18 10:55:05;;;;;;;0.27;0.10;;;;;;;-1.93;50.10;99185.52;1729340;81;22788;-50
2022/01/18 10:57:39;;;;;;;3.13;0.20;;;;;;;-1.92;50.02;99200.46;1747496;80;21459;-53
2022/01/18 11:00:14;;;;;;;3.25;0.20;;;;;;;-1.96;49.45;99198.75;1750619;80;21026;-50
2022/01/18 11:02:43;;;;;;;0.50;0.10;;;;;;;-1.97;50.30;99196.55;1751006;80;21424;-50
2022/01/18 11:05:24;;;;;;;0.90;0.10;;;;;;;-1.98;50.10;99196.55;1751562;80;21388;-51
2022/01/18 11:07:50;;;;;;;0.50;0.20;;;;;;;-1.99;50.38;99208.86;1725818;80;21502;-49
2022/01/18 11:10:23;;;;;;;0.57;0.20;;;;;;;-2.02;50.80;99213.27;1747538;80;21541;-47
2022/01/18 11:13:07;;;;;;;1.70;0.10;;;;;;;-2.00;51.03;99218.10;1746747;79;21374;-49
2022/01/18 11:15:37;;;;;;;0.30;0.10;;;;;;;-1.96;50.88;99226.44;1744045;80;21351;-49
2022/01/18 11:18:08;;;;;;;1.63;0.17;;;;;;;-1.91;51.64;99229.47;1744031;80;21709;-49
2022/01/18 11:20:37;;;;;;;1.70;0.10;;;;;;;-1.87;50.36;99227.67;1755758;79;22333;-49
2022/01/18 11:23:05;;;;;;;1.20;0.30;;;;;;;-1.84;50.19;99268.55;1748746;80;21178;-50
2022/01/18 11:25:31;;;;;;;0.50;0.30;;;;;;;-1.91;51.59;99240.02;1748409;80;21028;-48
2022/01/18 11:27:59;;;;;;;0.50;0.20;;;;;;;-1.98;50.39;99243.59;1749768;80;20886;-50
2022/01/18 11:30:31;;;;;;;1.37;0.50;;;;;;;-2.00;50.58;99242.72;1748691;80;21088;-51
2022/01/18 11:32:58;;;;;;;1.00;0.40;;;;;;;-2.03;50.21;99237.45;1749995;80;21137;-47
2022/01/18 11:35:59;;;;;;;4.27;1.50;;;;;;;-2.05;50.00;99251.11;1748322;80;21089;-50
2022/01/18 11:38:50;;;;;;;0.70;0.30;;;;;;;-2.03;50.53;99253.27;1745408;80;21045;-46
2022/01/18 11:41:24;;;;;;;0.20;0.10;;;;;;;-1.99;51.05;99258.09;1746086;80;21072;-50
2022/01/18 11:43:52;;;;;;;0.67;0.00;;;;;;;-1.95;51.03;99262.45;1746387;80;21560;-50
2022/01/18 11:46:41;;;;;;;0.37;0.00;;;;;;;-1.96;50.60;99266.00;1746286;80;21500;-48
2022/01/18 11:49:09;;;;;;;0.30;0.10;;;;;;;-1.97;50.96;99286.67;1739478;81;22252;-48
2022/01/18 11:51:45;;;;;;;0.63;0.20;;;;;;;-1.99;50.73;99268.65;1747318;81;21097;-50
2022/01/18 11:57:05;;;;;;;0.20;0.10;;;;;;;-2.02;51.01;99286.67;1752760;80;21426;-49
2022/01/18 11:59:39;;;;;;;1.33;0.10;;;;;;;-2.02;51.33;99292.39;1721437;81;21106;-50
2022/01/18 12:02:06;;;;;;;0.50;0.17;;;;;;;-2.00;51.42;99291.95;1771774;79;20929;-49
2022/01/18 12:07:14;;;;;;;2.33;0.10;;;;;;;-1.89;51.88;99291.90;1736999;81;21000;-49
2022/01/18 12:09:42;;;;;;;0.90;0.10;;;;;;;-1.83;51.70;99290.09;1766203;80;21472;-49
2022/01/18 12:12:46;;;;;;;0.40;0.20;;;;;;;-1.81;51.39;99300.20;1738901;80;21111;-50
2022/01/18 12:15:23;;;;;;;0.43;0.20;;;;;;;-1.86;50.92;99298.02;1746846;80;20938;-49
2022/01/18 12:18:00;;;;;;;0.60;0.20;;;;;;;-1.90;51.61;99302.89;1749138;81;20883;-49
2022/01/18 12:20:43;;;;;;;1.83;0.10;;;;;;;-1.90;51.81;99310.80;1747361;81;20879;-50
2022/01/18 12:23:21;;;;;;;0.50;0.13;;;;;;;-1.87;51.76;99307.28;1737115;80;20950;-49
2022/01/18 12:25:59;;;;;;;1.70;0.27;;;;;;;-1.86;51.81;99322.20;1741225;80;21136;-49
2022/01/18 12:29:18;;;;;;;0.80;0.20;;;;;;;-1.85;52.37;99322.19;1748664;80;20950;-50
2022/01/18 12:34:44;;;;;;;0.47;0.20;;;;;;;-1.79;52.50;99341.97;1743275;80;20902;-51
2022/01/18 12:37:16;;;;;;;0.70;0.20;;;;;;;-1.80;52.59;99342.85;1742280;80;20930;-49
2022/01/18 12:45:33;;;;;;;0.70;0.10;;;;;;;-1.83;53.05;99353.41;1738419;80;21382;-53
2022/01/18 12:49:58;;;;;;;0.40;0.17;;;;;;;-1.79;52.72;99383.31;1786881;78;26706;-50
2022/01/18 12:52:24;;;;;;;0.40;0.10;;;;;;;-1.88;52.97;99373.67;1744887;80;21704;-53
2022/01/18 12:54:50;;;;;;;0.40;0.20;;;;;;;-1.89;52.93;99397.41;1743006;80;21155;-52
2022/01/18 12:57:22;;;;;;;0.50;0.20;;;;;;;-1.94;52.93;99383.78;1750633;80;21036;-50
2022/01/18 13:00:02;;;;;;;1.30;0.40;;;;;;;-1.95;53.17;99386.42;1751562;80;20996;-50
2022/01/18 13:02:29;;;;;;;1.63;0.40;;;;;;;-1.96;53.07;99401.84;1749349;80;21146;-49
2022/01/18 13:05:01;;;;;;;0.70;0.30;;;;;;;-1.93;53.57;99401.81;1749602;80;21340;-51
2022/01/18 13:07:27;;;;;;;1.00;0.23;;;;;;;-1.87;53.75;99407.53;1756141;80;21455;-52
2022/01/18 13:10:07;;;;;;;0.80;0.10;;;;;;;-1.85;52.90;99405.30;1754585;80;21415;-49
2022/01/18 13:12:44;;;;;;;1.23;0.10;;;;;;;-1.84;53.40;99422.88;1750210;80;20945;-48
2022/01/18 13:15:07;;;;;;;0.83;0.20;;;;;;;-1.81;53.20;99408.81;1748535;80;21634;-50
2022/01/18 13:23:34;;;;;;;0.30;0.10;;;;;;;-1.80;52.67;99413.21;1746496;80;21538;-50